Time;durP1;ratioP1;P1;durP2;ratioP2;P2;SDS_P1;SDS_P2;PMS_P1;PMS_P2;Temp;Humidity;BMP_temperature;BMP_pressure;BME280_temperature;BME280_humidity;BME280_pressure;Samples;Min_cycle;Max_cycle;Signal;HPM_P1;HPM_P2
2022/02/01 00:02:07;;;;;;;;;12.25;8.00;;;;;4.62;57.38;101889.88;5100869;27;45247;-66
2022/02/01 00:07:29;;;;;;;;;12.25;9.75;;;;;4.60;58.71;101886.38;5098668;27;45988;-66
2022/02/01 00:09:58;;;;;;;;;11.50;9.50;;;;;4.60;58.29;101878.56;5098214;27;45338;-65
2022/02/01 00:12:40;;;;;;;;;7.00;5.00;;;;;4.56;58.88;101886.38;5098475;27;45486;-65
2022/02/01 00:15:56;;;;;;;;;7.75;7.00;;;;;4.53;58.55;101874.19;5099303;27;45591;-68
2022/02/01 00:37:14;;;;;;;;;7.00;7.00;;;;;4.44;58.72;101887.16;5097164;27;45392;-64
2022/02/01 00:39:44;;;;;;;;;7.50;7.50;;;;;4.43;58.75;101883.69;5096621;27;46274;-64
2022/02/01 00:42:10;;;;;;;;;10.25;8.75;;;;;4.48;58.60;101888.94;5096522;27;45424;-64
2022/02/01 00:44:37;;;;;;;;;13.50;12.50;;;;;4.50;58.97;101895.00;5096292;27;45385;-66
2022/02/01 00:47:03;;;;;;;;;9.75;6.50;;;;;4.50;58.96;101889.81;5096926;27;45581;-60
2022/02/01 00:49:29;;;;;;;;;6.75;3.00;;;;;4.47;58.72;101888.06;5098594;27;47249;-64
2022/02/01 00:51:55;;;;;;;;;7.25;7.25;;;;;4.46;59.26;101894.13;5097374;27;45463;-63
2022/02/01 00:54:20;;;;;;;;;12.75;6.50;;;;;4.44;58.88;101906.28;5096905;27;45250;-65
2022/02/01 00:56:46;;;;;;;;;8.25;6.00;;;;;4.42;58.93;101913.22;5096212;27;45321;-65
2022/02/01 00:59:11;;;;;;;;;10.25;5.75;;;;;4.40;59.03;101912.34;5097472;27;45443;-64
2022/02/01 01:01:36;;;;;;;;;10.25;9.00;;;;;4.37;59.15;101914.94;5099879;27;45423;-66
2022/02/01 01:04:02;;;;;;;;;8.25;6.25;;;;;4.36;59.10;101914.03;5100185;27;45400;-65
2022/02/01 01:06:28;;;;;;;;;11.50;9.00;;;;;4.34;59.30;101914.91;5098759;27;45352;-65
2022/02/01 01:08:54;;;;;;;;;8.50;5.75;;;;;4.35;58.97;101927.06;5100088;27;47035;-65
2022/02/01 01:11:20;;;;;;;;;8.75;7.75;;;;;4.43;59.59;101930.59;5102108;27;45391;-67
2022/02/01 01:43:35;;;;;;;;;11.25;6.50;;;;;4.53;59.47;101889.81;5100681;27;45463;-64
2022/02/01 01:54:14;;;;;;;;;6.25;6.25;;;;;4.42;60.01;101892.38;5099735;27;45301;-65
2022/02/01 01:56:39;;;;;;;;;11.00;6.75;;;;;4.42;60.18;101897.59;5100339;27;45417;-66
2022/02/01 01:59:07;;;;;;;;;11.50;8.25;;;;;4.45;60.34;101902.81;5100534;27;45377;-63
2022/02/01 02:01:36;;;;;;;;;9.25;7.50;;;;;4.47;60.09;101901.09;5098785;27;45430;-65
2022/02/01 02:04:02;;;;;;;;;10.75;6.75;;;;;4.50;61.04;101895.91;5100165;27;45328;-64
2022/02/01 02:06:31;;;;;;;;;11.00;6.75;;;;;4.53;60.36;101879.41;5100282;27;45334;-62
2022/02/01 02:08:58;;;;;;;;;11.25;5.50;;;;;4.56;60.53;101895.06;5098344;27;45423;-66
2022/02/01 02:14:39;;;;;;;;;8.75;6.75;;;;;4.60;60.87;101896.81;5098781;27;45346;-64
2022/02/01 02:16:43;;;;;;;;;7.00;6.00;;;;;4.63;61.28;101890.75;5098201;27;45358;-62
2022/02/01 02:19:10;;;;;;;;;10.25;6.50;;;;;4.73;61.20;101889.06;5099238;27;45419;-65
2022/02/01 02:21:38;;;;;;;;;5.75;5.25;;;;;4.78;61.45;101895.19;5098748;27;45334;-64
2022/02/01 02:24:04;;;;;;;;;7.75;7.50;;;;;4.79;61.47;101908.22;5098483;27;45215;-63
2022/02/01 02:26:30;;;;;;;;;11.75;6.50;;;;;4.83;61.38;101902.16;5098646;27;45297;-63
2022/02/01 02:28:55;;;;;;;;;10.25;8.50;;;;;4.88;61.29;101897.00;5098659;27;45242;-64
2022/02/01 02:31:22;;;;;;;;;10.25;7.00;;;;;4.91;61.41;101889.19;5098853;27;45546;-62
2022/02/01 02:33:48;;;;;;;;;8.75;6.00;;;;;5.00;61.34;101895.28;5098773;27;45416;-62
2022/02/01 02:36:19;;;;;;;;;7.25;4.00;;;;;5.04;61.71;101890.09;5098183;27;45367;-64
2022/02/01 02:39:11;;;;;;;;;8.50;6.75;;;;;5.09;61.51;101893.56;5099150;27;45401;-63
2022/02/01 02:41:37;;;;;;;;;6.00;6.00;;;;;5.15;61.78;101881.41;5098257;27;45967;-64
2022/02/01 02:46:51;;;;;;;;;9.00;5.00;;;;;5.22;62.08;101873.63;5098469;27;45314;-62
2022/02/01 02:49:22;;;;;;;;;9.00;7.50;;;;;5.26;61.93;101879.72;5099284;27;45252;-64
2022/02/01 02:51:48;;;;;;;;;6.25;6.00;;;;;5.32;62.02;101868.44;5098652;27;46399;-59
2022/02/01 02:54:17;;;;;;;;;6.00;6.00;;;;;5.29;62.28;101843.19;5101992;27;45489;-63
2022/02/01 02:56:50;;;;;;;;;7.25;6.00;;;;;5.36;62.07;101847.59;5097777;27;45390;-61
2022/02/01 02:59:16;;;;;;;;;7.25;4.50;;;;;5.37;62.80;101831.06;5099071;27;45187;-65
2022/02/01 03:01:46;;;;;;;;;7.00;6.00;;;;;5.43;62.55;101839.78;5098239;27;46596;-63
2022/02/01 03:04:12;;;;;;;;;8.00;6.25;;;;;5.34;62.44;101818.00;5098176;27;45217;-60
2022/02/01 03:06:37;;;;;;;;;5.50;5.50;;;;;5.40;62.99;101841.50;5098375;27;45397;-61
2022/02/01 03:09:03;;;;;;;;;9.25;5.00;;;;;5.34;62.68;101828.44;5098444;27;45468;-63
2022/02/01 03:11:29;;;;;;;;;8.25;5.00;;;;;5.33;62.77;101836.25;5098020;27;46242;-65
2022/02/01 03:13:58;;;;;;;;;8.25;6.50;;;;;5.32;63.73;101840.63;5097930;27;45465;-64
2022/02/01 03:21:59;;;;;;;;;9.00;5.75;;;;;5.41;63.83;101838.03;5097647;27;45259;-65
2022/02/01 03:24:24;;;;;;;;;6.50;4.50;;;;;5.41;64.28;101827.59;5098262;27;45229;-64
2022/02/01 03:26:49;;;;;;;;;4.25;4.25;;;;;5.39;64.32;101824.09;5098845;27;45413;-58
2022/02/01 03:29:15;;;;;;;;;5.75;3.75;;;;;5.42;64.75;101823.22;5101503;27;45540;-64
2022/02/01 03:31:40;;;;;;;;;7.00;5.25;;;;;5.38;65.15;101817.16;5097657;27;45980;-66
2022/02/01 03:34:06;;;;;;;;;6.50;4.75;;;;;5.38;64.67;101819.75;5096430;27;45260;-62
2022/02/01 03:36:31;;;;;;;;;8.25;5.75;;;;;5.41;64.84;101827.59;5098182;27;45515;-62
2022/02/01 03:38:58;;;;;;;;;8.00;5.00;;;;;5.41;65.83;101821.50;5098792;27;45450;-64
2022/02/01 03:41:24;;;;;;;;;7.50;5.00;;;;;5.44;65.64;101834.53;5098361;27;45984;-63
2022/02/01 03:43:50;;;;;;;;;6.50;4.50;;;;;5.44;65.89;101833.69;5100903;27;45317;-66
2022/02/01 03:46:16;;;;;;;;;5.00;5.00;;;;;5.44;65.98;101838.91;5099339;27;45290;-62
2022/02/01 03:48:41;;;;;;;;;7.00;4.75;;;;;5.46;66.03;101845.00;5100282;27;45565;-62
2022/02/01 03:51:08;;;;;;;;;7.25;7.00;;;;;5.48;66.20;101830.22;5099211;27;45401;-68
2022/02/01 03:53:34;;;;;;;;;6.00;5.00;;;;;5.50;66.18;101815.41;5098667;27;45415;-62
2022/02/01 03:56:00;;;;;;;;;7.50;3.25;;;;;5.53;66.25;101803.22;5097490;27;45330;-59
2022/02/01 03:58:26;;;;;;;;;13.25;7.00;;;;;5.55;66.71;101792.81;5098773;27;45217;-66
2022/02/01 04:00:51;;;;;;;;;5.50;4.50;;;;;5.44;66.56;101774.50;5098550;27;45234;-59
2022/02/01 04:03:18;;;;;;;;;8.00;3.50;;;;;5.62;66.54;101797.16;5100456;27;45386;-65
2022/02/01 04:05:43;;;;;;;;;8.50;5.25;;;;;5.61;66.71;101792.81;5100026;27;45411;-64
2022/02/01 04:08:08;;;;;;;;;9.50;6.75;;;;;5.62;67.63;101799.75;5100043;27;45441;-63
2022/02/01 04:10:34;;;;;;;;;6.50;5.75;;;;;5.62;67.71;101797.16;5106629;27;45444;-65
2022/02/01 04:13:01;;;;;;;;;6.50;5.00;;;;;5.63;67.28;101796.28;5102739;27;45342;-68
2022/02/01 04:15:27;;;;;;;;;9.00;6.25;;;;;5.50;67.38;101776.28;5098953;27;45304;-66
2022/02/01 04:17:54;;;;;;;;;5.75;5.00;;;;;5.64;68.08;101795.41;5100962;27;45341;-62
2022/02/01 04:20:19;;;;;;;;;7.25;5.50;;;;;5.64;68.07;101787.59;5095646;27;47088;-65
2022/02/01 04:22:45;;;;;;;;;6.75;5.75;;;;;5.69;68.06;101796.28;5096585;27;45277;-65
2022/02/01 04:25:10;;;;;;;;;8.00;4.75;;;;;5.68;68.90;101784.09;5096810;27;45515;-65
2022/02/01 04:27:37;;;;;;;;;8.00;4.00;;;;;5.67;69.11;101779.75;5096924;27;45377;-64
2022/02/01 04:30:10;;;;;;;;;5.25;4.75;;;;;5.63;69.12;101785.84;5098189;27;45425;-65
2022/02/01 04:32:54;;;;;;;;;7.00;3.50;;;;;5.68;69.61;101793.66;5098106;27;45483;-64
2022/02/01 04:35:22;;;;;;;;;6.50;3.50;;;;;5.69;69.94;101800.63;5096168;27;45411;-63
2022/02/01 04:37:48;;;;;;;;;9.00;5.50;;;;;5.70;70.30;101800.63;5096815;27;45345;-61
2022/02/01 04:40:16;;;;;;;;;8.25;5.25;;;;;5.68;69.95;101794.53;5096341;27;46225;-65
2022/02/01 04:42:42;;;;;;;;;7.50;5.00;;;;;5.72;70.87;101807.59;5096397;27;45302;-64
2022/02/01 04:45:12;;;;;;;;;7.50;4.50;;;;;5.72;70.51;101804.97;5096433;27;45387;-64
2022/02/01 04:47:38;;;;;;;;;5.25;5.00;;;;;5.76;71.48;101793.66;5095394;27;45426;-65
2022/02/01 04:50:11;;;;;;;;;8.75;5.00;;;;;5.69;71.56;101774.50;5095681;27;48217;-67
2022/02/01 04:52:36;;;;;;;;;6.75;5.75;;;;;5.78;71.12;101784.94;5096683;27;45557;-61
2022/02/01 04:55:03;;;;;;;;;8.00;5.00;;;;;5.80;72.09;101784.97;5097200;27;45354;-66
2022/02/01 04:57:28;;;;;;;;;6.00;3.50;;;;;5.81;71.80;101778.88;5097553;27;45387;-63
2022/02/01 04:59:54;;;;;;;;;7.50;4.00;;;;;5.80;72.15;101769.28;5096347;27;46215;-60
2022/02/01 05:02:19;;;;;;;;;6.50;4.00;;;;;5.82;72.51;101757.94;5097187;27;45427;-66
2022/02/01 05:04:44;;;;;;;;;11.50;4.00;;;;;5.85;72.89;101759.72;5098211;27;45522;-58
2022/02/01 05:07:10;;;;;;;;;6.00;5.00;;;;;5.83;72.94;101764.94;5096441;27;45512;-55
2022/02/01 05:09:35;;;;;;;;;4.00;3.00;;;;;5.84;72.67;101760.56;5097176;27;48439;-56
2022/02/01 05:12:05;;;;;;;;;6.00;4.25;;;;;5.83;72.89;101761.44;5099845;27;45341;-60
2022/02/01 05:14:31;;;;;;;;;6.50;4.75;;;;;5.84;73.09;101756.25;5100904;27;45238;-59
2022/02/01 05:17:01;;;;;;;;;8.50;4.00;;;;;5.83;73.16;101769.28;5106012;27;45639;-57
2022/02/01 05:19:45;;;;;;;;;4.00;3.75;;;;;5.84;73.26;101771.91;5102974;27;46224;-62
2022/02/01 05:22:17;;;;;;;;;7.50;4.50;;;;;5.78;73.82;101771.88;5097777;27;45335;-62
2022/02/01 05:24:45;;;;;;;;;5.50;5.00;;;;;5.84;73.76;101784.97;5096695;27;45314;-63
2022/02/01 05:27:13;;;;;;;;;4.75;3.00;;;;;5.80;73.89;101771.91;5097831;27;45526;-64
2022/02/01 05:29:39;;;;;;;;;2.75;2.75;;;;;5.85;74.12;101778.88;5097980;27;46417;-67
2022/02/01 05:32:22;;;;;;;;;8.50;5.50;;;;;5.87;74.32;101771.03;5096341;27;45326;-65
2022/02/01 05:34:48;;;;;;;;;8.75;5.75;;;;;5.89;74.87;101784.09;5094990;27;45335;-64
2022/02/01 05:37:14;;;;;;;;;6.75;4.50;;;;;5.89;74.51;101784.09;5096513;27;45624;-65
2022/02/01 05:39:39;;;;;;;;;3.00;3.00;;;;;5.88;75.41;101788.44;5096023;27;45689;-62
2022/02/01 05:42:05;;;;;;;;;6.00;4.25;;;;;5.87;75.10;101780.63;5096399;27;45162;-59
2022/02/01 05:44:30;;;;;;;;;4.00;4.00;;;;;5.88;75.72;101764.06;5096706;27;45333;-60
2022/02/01 05:46:56;;;;;;;;;5.75;3.75;;;;;5.79;75.39;101739.69;5101593;27;45616;-61
2022/02/01 05:49:21;;;;;;;;;14.25;6.00;;;;;5.87;76.14;101741.44;5101711;27;45369;-64
2022/02/01 05:51:50;;;;;;;;;14.25;11.50;;;;;5.60;76.13;101704.03;5104397;27;45401;-60
2022/02/01 05:54:16;;;;;;;;;6.00;4.50;;;;;5.90;76.52;101741.44;5098876;27;45417;-58
2022/02/01 05:56:42;;;;;;;;;6.50;4.75;;;;;5.91;76.45;101735.34;5101186;27;45275;-62
2022/02/01 05:59:07;;;;;;;;;5.00;5.00;;;;;5.93;77.17;101739.66;5100392;27;45941;-63
2022/02/01 06:01:32;;;;;;;;;6.00;3.00;;;;;5.89;77.21;101724.88;5100473;27;45245;-64
2022/02/01 06:03:58;;;;;;;;;8.00;5.50;;;;;5.87;77.46;101721.41;5099608;27;45284;-62
2022/02/01 06:06:23;;;;;;;;;11.75;10.25;;;;;5.89;77.59;101717.03;5099907;27;45180;-66
2022/02/01 06:08:48;;;;;;;;;5.50;4.00;;;;;5.91;77.89;101720.53;5099554;27;46032;-66
2022/02/01 06:11:14;;;;;;;;;3.50;3.25;;;;;5.92;77.75;101718.78;5099432;27;45344;-63
2022/02/01 06:13:39;;;;;;;;;4.75;3.00;;;;;5.92;78.78;101726.63;5099673;27;45333;-60
2022/02/01 06:16:05;;;;;;;;;5.25;4.00;;;;;5.94;78.77;101714.44;5098037;27;45512;-64
2022/02/01 06:18:31;;;;;;;;;8.25;5.00;;;;;5.80;79.31;101688.34;5100836;27;46373;-62
2022/02/01 06:20:56;;;;;;;;;6.25;3.75;;;;;5.96;79.01;101723.13;5098043;27;45256;-63
2022/02/01 06:23:22;;;;;;;;;8.75;5.00;;;;;5.83;79.12;101707.50;5099233;27;45379;-61
2022/02/01 06:25:49;;;;;;;;;6.50;4.50;;;;;5.93;79.64;101692.66;5099844;27;45451;-67
2022/02/01 06:28:26;;;;;;;;;8.00;6.00;;;;;6.01;79.32;101700.53;5098945;27;46800;-65
2022/02/01 06:30:52;;;;;;;;;8.50;6.00;;;;;6.04;79.15;101720.53;5099437;27;45437;-62
2022/02/01 06:33:18;;;;;;;;;10.00;7.75;;;;;6.07;79.76;101715.28;5100253;27;45373;-61
2022/02/01 06:35:44;;;;;;;;;8.25;4.75;;;;;6.08;79.40;101719.63;5099956;27;45556;-62
2022/02/01 06:38:11;;;;;;;;;5.75;4.00;;;;;6.08;79.50;101720.53;5098224;27;45340;-65
2022/02/01 06:40:37;;;;;;;;;7.00;5.25;;;;;6.05;79.94;101706.59;5099880;27;45207;-63
2022/02/01 06:43:03;;;;;;;;;14.75;8.75;;;;;5.99;79.20;101684.81;5099870;27;45347;-65
2022/02/01 06:45:28;;;;;;;;;4.50;3.75;;;;;6.08;79.46;101707.47;5100592;27;45362;-67
2022/02/01 06:47:55;;;;;;;;;8.00;4.00;;;;;6.14;80.16;101730.94;5101115;27;46041;-64
2022/02/01 06:50:22;;;;;;;;;6.00;3.75;;;;;6.19;79.23;101725.69;5100657;27;45395;-74
2022/02/01 06:52:54;;;;;;;;;5.00;4.25;;;;;6.21;79.54;101716.09;5099884;27;45378;-70
2022/02/01 06:55:31;;;;;;;;;10.00;7.75;;;;;6.18;80.27;101717.88;5099227;27;46051;-60
2022/02/01 06:57:58;;;;;;;;;6.50;5.25;;;;;6.26;79.58;101714.34;5097420;27;46269;-63
2022/02/01 07:00:23;;;;;;;;;5.00;5.00;;;;;6.32;80.23;101723.91;5098697;27;45313;-61
2022/02/01 07:02:49;;;;;;;;;6.50;4.75;;;;;6.31;79.80;101711.72;5098902;27;45254;-73
2022/02/01 07:05:14;;;;;;;;;9.25;4.00;;;;;6.37;80.27;101716.94;5099074;27;45149;-73
2022/02/01 07:07:39;;;;;;;;;8.25;7.00;;;;;6.41;79.52;101717.78;5104675;27;46081;-75
2022/02/01 07:10:05;;;;;;;;;9.75;3.75;;;;;6.43;79.70;101719.50;5120155;27;45392;-75
2022/02/01 07:12:36;;;;;;;;;10.00;7.25;;;;;6.41;79.96;101715.19;5107927;27;45388;-74
2022/02/01 07:15:02;;;;;;;;;8.50;4.75;;;;;6.51;80.56;101723.84;5098425;27;45322;-69
2022/02/01 07:17:28;;;;;;;;;10.50;8.00;;;;;6.45;80.04;101705.56;5100128;27;46262;-74
2022/02/01 07:19:55;;;;;;;;;8.25;5.25;;;;;6.48;80.58;101702.94;5098406;27;45351;-73
2022/02/01 07:22:21;;;;;;;;;7.00;6.00;;;;;6.55;81.03;101713.38;5102184;27;45387;-72
2022/02/01 07:24:58;;;;;;;;;5.25;5.25;;;;;6.56;80.68;101704.66;5104464;27;45164;-74
2022/02/01 07:27:37;;;;;;;;;11.00;5.00;;;;;6.60;81.02;101720.31;5098793;27;46286;-71
2022/02/01 07:30:07;;;;;;;;;7.75;5.50;;;;;6.63;81.43;101726.38;5099144;27;45320;-72
2022/02/01 07:32:35;;;;;;;;;8.00;6.50;;;;;6.64;81.25;101727.25;5099225;27;45247;-72
2022/02/01 07:35:01;;;;;;;;;20.25;16.75;;;;;6.64;82.49;101720.28;5100161;27;45502;-72
2022/02/01 07:37:27;;;;;;;;;7.50;6.00;;;;;6.65;81.92;101714.16;5099738;27;45415;-74
2022/02/01 07:39:52;;;;;;;;;8.25;5.25;;;;;6.65;81.72;101722.00;5101817;27;45239;-70
2022/02/01 07:42:17;;;;;;;;;7.50;5.00;;;;;6.64;83.03;101716.81;5113989;27;45397;-69
2022/02/01 07:44:43;;;;;;;;;12.75;6.00;;;;;6.63;83.31;101708.06;5111412;27;45364;-74
2022/02/01 07:47:16;;;;;;;;;7.50;6.75;;;;;6.61;83.66;101696.75;5101186;27;45287;-72
2022/02/01 07:49:42;;;;;;;;;10.75;5.50;;;;;6.62;83.55;101697.66;5120345;27;45432;-73
2022/02/01 07:52:07;;;;;;;;;34.25;29.00;;;;;6.60;83.95;101688.94;5120537;27;45936;-70
2022/02/01 07:54:33;;;;;;;;;8.00;7.00;;;;;6.62;84.15;101693.28;5120359;27;45471;-60
2022/02/01 07:56:58;;;;;;;;;7.50;6.00;;;;;6.60;84.20;101676.72;5119675;27;45216;-69
2022/02/01 07:59:23;;;;;;;;;10.50;6.00;;;;;6.65;85.17;101682.78;5119656;27;45253;-72
2022/02/01 08:01:49;;;;;;;;;6.00;5.00;;;;;6.66;85.22;101683.66;5119425;27;45331;-75
2022/02/01 08:04:14;;;;;;;;;7.25;5.25;;;;;6.66;84.57;101673.22;5119513;27;45536;-73
2022/02/01 08:06:40;;;;;;;;;7.25;5.00;;;;;6.67;84.72;101680.19;5119817;27;46209;-73
2022/02/01 08:09:14;;;;;;;;;12.75;6.25;;;;;6.67;85.80;101680.19;5100468;27;45322;-73
2022/02/01 08:11:39;;;;;;;;;11.25;8.00;;;;;6.64;84.92;101667.97;5079675;27;45299;-74
2022/02/01 08:16:44;;;;;;;;;11.00;7.75;;;;;6.65;85.53;101659.25;5094793;27;46018;-69
2022/02/01 08:19:16;;;;;;;;;13.75;8.00;;;;;6.69;86.61;101652.28;5077119;27;45334;-68
2022/02/01 08:21:44;;;;;;;;;12.25;8.25;;;;;6.73;85.86;101665.31;5077278;27;45442;-70
2022/02/01 08:24:10;;;;;;;;;9.75;7.00;;;;;6.73;84.84;101651.38;5086935;27;45482;-66
2022/02/01 08:26:35;;;;;;;;;11.25;7.00;;;;;6.72;84.89;101647.88;5080000;27;45460;-60
2022/02/01 08:29:01;;;;;;;;;11.00;9.25;;;;;6.75;84.75;101654.84;5083105;27;45580;-65
2022/02/01 08:31:27;;;;;;;;;14.25;10.25;;;;;6.77;85.32;101652.22;5080762;27;45265;-65
2022/02/01 08:33:53;;;;;;;;;8.75;8.00;;;;;6.80;84.81;101650.44;5079792;27;45214;-67
2022/02/01 08:36:18;;;;;;;;;11.25;7.25;;;;;6.84;85.29;101644.31;5076122;27;45145;-69
2022/02/01 08:38:43;;;;;;;;;13.00;9.50;;;;;6.79;84.13;101625.19;5076769;27;45249;-67
2022/02/01 08:41:09;;;;;;;;;13.75;10.50;;;;;6.87;84.14;101638.19;5088682;27;45413;-66
2022/02/01 08:43:34;;;;;;;;;22.75;16.50;;;;;6.91;84.11;101628.56;5082835;27;45530;-68
2022/02/01 08:45:59;;;;;;;;;18.25;12.25;;;;;6.93;84.18;101629.44;5105224;27;46130;-70
2022/02/01 08:48:25;;;;;;;;;14.50;12.25;;;;;6.96;83.57;101622.44;5094489;27;45342;-67
2022/02/01 08:50:50;;;;;;;;;21.50;17.00;;;;;6.99;83.89;101627.66;5079001;27;45787;-67
2022/02/01 08:53:21;;;;;;;;;16.50;11.00;;;;;6.97;83.26;101615.44;5096587;27;45341;-67
2022/02/01 08:58:19;;;;;;;;;9.50;8.00;;;;;7.07;84.35;101614.47;5096715;27;45499;-69
2022/02/01 09:00:45;;;;;;;;;13.50;8.75;;;;;7.03;83.58;101610.16;5097389;27;45502;-69
2022/02/01 09:03:11;;;;;;;;;14.75;11.75;;;;;7.09;83.37;101604.03;5096762;27;45626;-66
2022/02/01 09:05:40;;;;;;;;;11.25;8.75;;;;;7.11;83.93;101613.56;5093663;27;47267;-62
2022/02/01 09:08:05;;;;;;;;;10.75;8.50;;;;;7.12;83.94;101606.59;5087441;27;45508;-70
2022/02/01 09:10:31;;;;;;;;;11.00;8.25;;;;;7.13;84.45;101598.72;5079704;27;45264;-70
2022/02/01 09:12:58;;;;;;;;;9.25;7.75;;;;;7.13;84.61;101600.50;5091972;27;45550;-66
2022/02/01 09:15:26;;;;;;;;;12.50;10.75;;;;;7.18;84.71;101593.47;5095259;27;46180;-71
2022/02/01 09:17:52;;;;;;;;;9.25;5.75;;;;;7.26;84.00;101585.53;5095136;27;45370;-71
2022/02/01 09:20:19;;;;;;;;;14.75;10.50;;;;;7.28;84.25;101583.75;5100965;27;45279;-68
2022/02/01 09:22:44;;;;;;;;;7.50;6.25;;;;;7.31;84.36;101574.13;5098879;27;45341;-71
2022/02/01 09:25:10;;;;;;;;;6.00;6.00;;;;;7.35;83.37;101587.19;5081968;27;45491;-68
2022/02/01 09:27:35;;;;;;;;;11.25;8.00;;;;;7.36;83.59;101588.91;5087795;27;45397;-71
2022/02/01 09:30:01;;;;;;;;;5.75;5.25;;;;;7.31;83.95;101571.50;5095604;27;45315;-70
2022/02/01 09:32:27;;;;;;;;;6.00;6.00;;;;;7.38;83.42;101564.44;5096913;27;45836;-73
2022/02/01 09:34:52;;;;;;;;;14.00;9.50;;;;;7.42;83.87;101567.91;5096124;27;46837;-70
2022/02/01 09:37:18;;;;;;;;;9.00;7.25;;;;;7.43;84.02;101560.06;5097278;27;46026;-68
2022/02/01 09:39:43;;;;;;;;;3.75;3.75;;;;;7.52;83.64;101568.69;5096792;27;45825;-68
2022/02/01 09:42:09;;;;;;;;;12.50;9.75;;;;;7.56;83.56;101575.63;5084673;27;45300;-61
2022/02/01 09:44:34;;;;;;;;;9.25;5.00;;;;;7.54;82.59;101561.69;5096512;27;46067;-67
2022/02/01 09:46:59;;;;;;;;;11.75;6.75;;;;;7.52;83.53;101555.59;5088722;27;45483;-68
2022/02/01 09:49:25;;;;;;;;;11.25;7.75;;;;;7.63;83.47;101544.97;5096006;27;45434;-67
2022/02/01 09:51:54;;;;;;;;;9.00;7.00;;;;;7.68;84.13;101562.38;5094123;27;45487;-70
2022/02/01 09:54:22;;;;;;;;;12.50;9.00;;;;;7.54;83.17;101525.03;5097778;27;47195;-63
2022/02/01 09:56:50;;;;;;;;;9.75;7.50;;;;;7.75;83.77;101569.28;5097684;27;45470;-61
2022/02/01 09:59:17;;;;;;;;;10.75;10.00;;;;;7.83;83.71;101568.31;5095837;27;45681;-61
2022/02/01 10:01:53;;;;;;;;;11.25;7.75;;;;;7.90;83.65;101572.59;5097617;27;45407;-63
2022/02/01 10:04:23;;;;;;;;;14.75;9.00;;;;;7.82;82.46;101533.38;5097117;27;45498;-62
2022/02/01 10:06:48;;;;;;;;;13.25;10.50;;;;;7.98;82.21;101573.34;5097704;27;45315;-62
2022/02/01 10:09:15;;;;;;;;;14.50;10.00;;;;;8.03;82.36;101566.28;5099826;27;45329;-64
2022/02/01 10:11:46;;;;;;;;;11.75;9.00;;;;;8.07;82.81;101574.09;5100751;27;45475;-63
2022/02/01 10:14:28;;;;;;;;;10.25;7.25;;;;;8.03;82.13;101563.66;5098124;27;47185;-62
2022/02/01 10:16:56;;;;;;;;;12.00;9.00;;;;;8.00;82.27;101558.47;5098988;27;45420;-63
2022/02/01 10:19:22;;;;;;;;;11.00;8.75;;;;;8.12;82.59;101561.81;5098974;27;45232;-63
2022/02/01 10:21:52;;;;;;;;;11.25;8.25;;;;;8.15;82.65;101557.41;5101684;27;45317;-60
2022/02/01 10:24:37;;;;;;;;;13.00;8.75;;;;;8.21;82.85;101551.19;5098967;27;46228;-62
2022/02/01 10:27:18;;;;;;;;;7.00;7.00;;;;;8.18;82.57;101538.13;5100116;27;45455;-63
2022/02/01 10:30:11;;;;;;;;;9.50;7.75;;;;;8.27;82.34;101550.25;5100414;27;45427;-64
2022/02/01 10:33:54;;;;;;;;;4.50;4.50;;;;;8.28;82.40;101554.59;5094397;27;45491;-63
2022/02/01 10:35:55;;;;;;;;;9.00;7.00;;;;;8.28;82.35;101534.47;5097395;27;46115;-62
2022/02/01 10:38:19;;;;;;;;;6.75;5.75;;;;;8.36;83.07;101546.59;5097906;27;45389;-62
2022/02/01 10:40:50;;;;;;;;;9.25;8.00;;;;;8.40;82.74;101545.66;5097042;27;45356;-62
2022/02/01 10:43:21;;;;;;;;;14.00;12.75;;;;;8.44;82.43;101542.09;5097157;27;45606;-62
2022/02/01 10:45:49;;;;;;;;;15.25;8.00;;;;;8.45;82.27;101542.09;5097961;27;45513;-63
2022/02/01 10:48:21;;;;;;;;;12.25;9.75;;;;;8.43;82.53;101536.00;5100719;27;45324;-63
2022/02/01 10:51:00;;;;;;;;;8.00;8.00;;;;;8.45;82.68;101539.47;5098732;27;45384;-62
2022/02/01 10:53:26;;;;;;;;;7.00;5.00;;;;;8.49;82.87;101524.59;5097096;27;45401;-65
2022/02/01 10:55:51;;;;;;;;;7.50;7.00;;;;;8.54;82.33;101527.13;5097591;27;45392;-63
2022/02/01 10:58:17;;;;;;;;;5.00;4.00;;;;;8.59;82.31;101520.94;5097140;27;45852;-61
2022/02/01 11:00:45;;;;;;;;;8.50;6.00;;;;;8.61;82.42;101519.16;5098702;27;45397;-61
2022/02/01 11:03:13;;;;;;;;;7.25;7.00;;;;;8.61;82.30;101503.41;5098579;27;45424;-63
2022/02/01 11:05:45;;;;;;;;;5.50;5.00;;;;;8.65;82.25;101506.84;5097274;27;47383;-62
2022/02/01 11:08:13;;;;;;;;;8.75;5.50;;;;;8.68;82.31;101508.56;5099717;27;45496;-64
2022/02/01 11:10:43;;;;;;;;;11.25;8.25;;;;;8.71;81.86;101498.00;5102112;27;45381;-62
2022/02/01 11:13:10;;;;;;;;;7.75;7.00;;;;;8.75;81.96;101491.81;5100192;27;45519;-63
2022/02/01 11:15:36;;;;;;;;;6.50;6.50;;;;;8.79;82.38;101483.00;5101424;27;46194;-65
2022/02/01 11:18:12;;;;;;;;;6.25;6.25;;;;;8.84;81.99;101485.50;5099852;27;45367;-63
2022/02/01 11:20:38;;;;;;;;;6.75;6.75;;;;;8.89;82.00;101492.41;5097813;27;45297;-64
2022/02/01 11:23:06;;;;;;;;;9.25;8.00;;;;;9.00;82.06;101488.72;5099113;27;45671;-63
2022/02/01 11:25:47;;;;;;;;;8.00;7.25;;;;;9.06;81.67;101475.50;5089953;27;46068;-62
2022/02/01 11:31:08;;;;;;;;;10.75;8.00;;;;;9.13;81.45;101479.72;5075656;27;45463;-63
2022/02/01 11:33:42;;;;;;;;;11.00;9.50;;;;;9.04;81.36;101458.91;5076887;28;45630;-64
2022/02/01 11:36:13;;;;;;;;;9.50;7.75;;;;;9.09;81.65;101466.69;5075929;27;45350;-64
2022/02/01 11:38:52;;;;;;;;;10.00;6.00;;;;;9.15;81.67;101472.69;5095527;27;45334;-62
2022/02/01 11:41:29;;;;;;;;;15.25;10.00;;;;;9.20;81.89;101473.44;5097825;27;45270;-64
2022/02/01 11:43:54;;;;;;;;;12.00;7.50;;;;;9.21;81.33;101463.81;5096922;27;45425;-65
2022/02/01 11:46:21;;;;;;;;;6.50;5.00;;;;;9.20;81.54;101454.22;5097013;27;47255;-65
2022/02/01 11:48:51;;;;;;;;;10.00;9.75;;;;;9.20;81.31;101452.44;5096431;27;45238;-64
2022/02/01 11:51:16;;;;;;;;;8.00;5.50;;;;;9.25;81.61;101456.75;5095285;27;45719;-62
2022/02/01 11:53:44;;;;;;;;;10.50;7.50;;;;;9.24;81.68;101457.63;5098291;27;45469;-63
2022/02/01 11:56:11;;;;;;;;;8.25;8.00;;;;;9.30;81.15;101454.88;5090450;27;46377;-65
2022/02/01 11:58:37;;;;;;;;;7.75;6.50;;;;;9.29;81.08;101453.16;5095762;27;45848;-62
2022/02/01 12:01:20;;;;;;;;;7.00;7.00;;;;;9.29;81.69;101463.66;5094931;27;45448;-62
2022/02/01 12:03:45;;;;;;;;;10.25;6.75;;;;;9.23;81.47;101446.28;5077629;27;45622;-61
2022/02/01 12:06:20;;;;;;;;;20.00;18.25;;;;;9.30;81.90;101460.13;5077264;27;45377;-65
2022/02/01 12:08:47;;;;;;;;;8.00;8.00;;;;;9.24;82.02;101450.63;5094471;27;45448;-63
2022/02/01 12:11:14;;;;;;;;;13.50;10.50;;;;;9.30;82.01;101458.38;5098976;27;45491;-70
2022/02/01 12:13:40;;;;;;;;;11.75;6.00;;;;;9.29;82.23;101453.16;5084094;27;45421;-65
2022/02/01 12:16:09;;;;;;;;;12.00;12.00;;;;;9.31;82.08;101449.63;5076805;27;46517;-67
2022/02/01 12:18:47;;;;;;;;;12.00;11.75;;;;;9.30;82.46;101455.75;5083969;27;45517;-63
2022/02/01 12:21:18;;;;;;;;;13.00;12.00;;;;;9.30;82.65;101445.25;5077686;27;45536;-65
2022/02/01 12:23:49;;;;;;;;;10.75;7.75;;;;;9.17;82.53;101436.75;5097224;27;45349;-64
2022/02/01 12:26:29;;;;;;;;;9.25;8.00;;;;;9.25;82.82;101434.00;5080484;27;46237;-61
2022/02/01 12:28:57;;;;;;;;;11.00;9.25;;;;;9.27;83.14;101440.06;5087003;27;45417;-63
2022/02/01 12:31:26;;;;;;;;;12.00;10.25;;;;;9.27;82.88;101424.31;5080377;27;45344;-64
2022/02/01 12:33:55;;;;;;;;;6.25;6.00;;;;;9.23;83.48;101412.16;5077878;27;45388;-65
2022/02/01 12:36:28;;;;;;;;;8.50;7.50;;;;;9.24;83.63;101415.63;5096249;27;46204;-64
2022/02/01 12:39:18;;;;;;;;;10.75;7.00;;;;;9.22;83.97;101415.69;5083741;27;45427;-63
2022/02/01 12:41:50;;;;;;;;;10.75;8.00;;;;;9.20;84.49;101422.72;5076847;27;45432;-65
2022/02/01 12:46:56;;;;;;;;;12.25;9.25;;;;;9.27;84.47;101407.69;5093633;27;45976;-64
2022/02/01 12:49:49;;;;;;;;;20.50;11.75;;;;;9.30;84.10;101399.75;5077025;27;46013;-61
2022/02/01 12:52:24;;;;;;;;;7.50;5.75;;;;;9.28;84.98;101394.53;5095972;27;45318;-64
2022/02/01 12:55:15;;;;;;;;;9.00;8.00;;;;;9.28;85.05;101391.91;5088749;27;45479;-63
2022/02/01 12:57:44;;;;;;;;;8.25;7.00;;;;;9.30;85.14;101387.50;5096486;27;45387;-62